Lake Lafayette, Missouri
Current Conditions -  °F | °C
As of 7:35 PM on Sunday 23 Nov 2014 (Local Time) from KRCM Reporting Station
Overcast Overcast  
Wind Chill: 37°   Ceiling: 1100
Heat Index: 45°   Visibility: 10mi
Dew Point: 43°   Wind: 20mph
Humidity: 93%   Direction: 310°NW
Pressure: 29.35"   Gusts: 30mph
Location:  38.9828°N, 93.9522°W
Report Text: KRCM 240135Z AUTO 31017G26KT 10SM OVC011 07/06 A2935 RMK AO2
Loading
Personal Weather Stations






























Interactive Weather Map New forecast layout! Learn more

10-Day Weather Forecast

Advertisements
Track Severe Weather on mobile